Time;durP1;ratioP1;P1;durP2;ratioP2;P2;SDS_P1;SDS_P2;PMS_P1;PMS_P2;Temp;Humidity;BMP_temperature;BMP_pressure;BME280_temperature;BME280_humidity;BME280_pressure;Samples;Min_cycle;Max_cycle;Signal;HPM_P1;HPM_P2
2023/07/13 00:02:14;;;;;;;;;;;;;;;18.02;85.11;100020.38;104008;280;97744;-55
2023/07/13 00:04:48;;;;;;;11.30;10.20;;;;;;;17.96;85.31;100019.73;104400;280;121123;-56
2023/07/13 00:07:23;;;;;;;10.30;9.10;;;;;;;17.90;85.27;100017.89;103962;280;105713;-55
2023/07/13 00:09:58;;;;;;;9.40;8.50;;;;;;;17.87;85.30;100018.10;103955;280;114498;-55
2023/07/13 00:12:35;;;;;;;10.40;8.60;;;;;;;17.86;85.45;100020.86;103967;280;96271;-55
2023/07/13 00:15:16;;;;;;;11.50;9.60;;;;;;;17.86;85.39;100017.75;104432;280;97703;-55
2023/07/13 00:17:49;;;;;;;10.50;9.00;;;;;;;17.87;85.62;100008.64;103981;280;120862;-55
2023/07/13 00:20:25;;;;;;;10.00;9.00;;;;;;;17.88;85.64;100001.98;103963;280;104682;-55
2023/07/13 00:22:59;;;;;;;11.20;9.20;;;;;;;17.88;85.49;100008.77;103922;280;113846;-56
2023/07/13 00:25:32;;;;;;;;;;;;;;;17.88;85.68;100015.88;103970;272;97327;-56
2023/07/13 00:28:06;;;;;;;11.80;8.70;;;;;;;17.85;85.88;100013.14;103973;280;96142;-56
2023/07/13 00:30:40;;;;;;;9.10;8.10;;;;;;;17.84;85.93;100016.53;103984;280;120919;-56
2023/07/13 00:33:14;;;;;;;10.00;8.10;;;;;;;17.82;86.00;100015.86;103990;280;104690;-56
2023/07/13 00:35:48;;;;;;;9.20;8.20;;;;;;;17.81;86.06;100012.95;103971;280;113692;-56
2023/07/13 00:38:22;;;;;;;10.90;9.80;;;;;;;17.81;86.04;100011.21;103938;280;96757;-54
2023/07/13 00:40:57;;;;;;;10.30;9.30;;;;;;;17.83;86.07;100010.20;103985;280;96971;-55
2023/07/13 00:43:32;;;;;;;13.30;10.30;;;;;;;17.85;86.09;100012.23;103949;280;119326;-54
2023/07/13 00:46:25;;;;;;;12.60;11.30;;;;;;;17.87;86.05;100016.73;103950;280;105399;-55
2023/07/13 00:49:03;;;;;;;15.20;11.50;;;;;;;17.87;86.31;100008.77;103983;280;113233;-55
2023/07/13 00:51:43;;;;;;;14.20;11.20;;;;;;;17.87;86.37;100006.13;103975;280;97472;-56
2023/07/13 00:54:24;;;;;;;13.10;10.70;;;;;;;17.86;86.47;100001.14;103983;280;96180;-56
2023/07/13 00:57:01;;;;;;;14.30;11.50;;;;;;;17.84;86.46;100003.66;103968;280;120386;-55
2023/07/13 00:59:38;;;;;;;13.30;10.90;;;;;;;17.81;86.66;100008.14;103980;280;105818;-55
2023/07/13 01:02:13;;;;;;;12.60;10.80;;;;;;;17.80;86.77;100001.95;103731;280;117702;-55
2023/07/13 01:04:47;;;;;;;12.80;11.10;;;;;;;17.75;86.99;100000.90;103906;280;97453;-55
2023/07/13 01:07:21;;;;;;;13.00;10.80;;;;;;;17.74;87.02;100004.70;104416;280;97625;-56
2023/07/13 01:09:56;;;;;;;13.40;11.20;;;;;;;17.76;87.06;100009.27;103925;280;120056;-56
2023/07/13 01:12:30;;;;;;;12.20;10.90;;;;;;;17.78;86.88;100007.83;103994;280;104544;-55
2023/07/13 01:15:06;;;;;;;11.20;10.10;;;;;;;17.78;86.85;100009.23;104383;280;113652;-55
2023/07/13 01:17:41;;;;;;;10.80;9.70;;;;;;;17.78;86.99;100006.80;103961;280;97005;-55
2023/07/13 01:20:13;;;;;;;;;;;;;;;17.81;86.94;100006.94;103968;280;97821;-54
2023/07/13 01:22:48;;;;;;;11.80;10.20;;;;;;;17.79;87.13;100010.52;103969;280;119912;-56
2023/07/13 01:25:23;;;;;;;19.90;11.00;;;;;;;17.78;87.37;100008.05;104001;280;104229;-56
2023/07/13 01:27:57;;;;;;;14.10;11.10;;;;;;;17.78;87.30;100002.58;104365;280;114379;-56
2023/07/13 01:30:32;;;;;;;13.20;10.90;;;;;;;17.78;87.14;100003.52;103982;280;95390;-56
2023/07/13 01:33:06;;;;;;;12.30;11.10;;;;;;;17.75;87.35;100012.08;104001;280;99282;-55
2023/07/13 01:35:41;;;;;;;12.10;10.40;;;;;;;17.71;87.45;100015.39;104374;280;121606;-55
2023/07/13 01:38:17;;;;;;;12.20;10.90;;;;;;;17.68;87.52;100023.60;103979;284;105233;-55
2023/07/13 01:40:52;;;;;;;12.50;11.10;;;;;;;17.71;87.51;100032.06;103967;280;113413;-55
2023/07/13 01:43:27;;;;;;;12.30;11.10;;;;;;;17.74;87.27;100039.99;103980;280;95456;-56
2023/07/13 01:46:01;;;;;;;12.00;10.60;;;;;;;17.74;87.27;100037.92;103841;280;96555;-56
2023/07/13 01:48:36;;;;;;;14.00;11.10;;;;;;;17.74;87.41;100027.58;103979;279;119390;-55
2023/07/13 01:51:10;;;;;;;13.30;11.10;;;;;;;17.75;87.31;100029.95;103983;280;105042;-56
2023/07/13 01:53:44;;;;;;;13.10;11.30;;;;;;;17.74;87.35;100034.68;103950;280;114800;-56
2023/07/13 01:56:16;;;;;;;;;;;;;;;17.70;87.62;100032.27;104411;280;96327;-55
2023/07/13 01:58:50;;;;;;;13.70;11.00;;;;;;;17.65;87.86;100033.23;104407;280;97763;-55
2023/07/13 02:01:24;;;;;;;12.80;11.40;;;;;;;17.65;87.68;100031.09;103992;280;119288;-55
2023/07/13 02:03:58;;;;;;;11.30;10.10;;;;;;;17.63;87.82;100029.18;103976;280;105049;-55
2023/07/13 02:06:31;;;;;;;;;;;;;;;17.64;87.98;100026.81;103949;280;113700;-55
2023/07/13 02:09:05;;;;;;;15.20;11.20;;;;;;;17.63;87.92;100028.64;104397;280;97807;-54
2023/07/13 02:11:37;;;;;;;;;;;;;;;17.61;87.92;100033.07;103950;280;96495;-55
2023/07/13 02:14:11;;;;;;;12.70;11.20;;;;;;;17.58;88.07;100037.34;103960;280;120247;-55
2023/07/13 02:16:45;;;;;;;13.60;11.50;;;;;;;17.57;88.02;100039.77;104025;280;105571;-56
2023/07/13 02:19:19;;;;;;;12.00;10.80;;;;;;;17.57;87.98;100036.89;103932;280;113077;-56
2023/07/13 02:21:53;;;;;;;13.30;10.40;;;;;;;17.58;87.93;100035.27;103937;280;95665;-55
2023/07/13 02:24:28;;;;;;;12.90;11.60;;;;;;;17.57;88.09;100033.34;103815;281;99425;-55
2023/07/13 02:27:00;;;;;;;;;;;;;;;17.55;88.01;100035.75;104422;280;119448;-55
2023/07/13 02:29:34;;;;;;;12.70;11.40;;;;;;;17.56;88.10;100041.00;103978;280;104064;-55
2023/07/13 02:32:10;;;;;;;13.00;11.20;;;;;;;17.53;88.28;100043.36;103949;280;114517;-55
2023/07/13 02:34:45;;;;;;;12.60;11.20;;;;;;;17.53;88.31;100043.73;104357;280;97000;-55
2023/07/13 02:37:19;;;;;;;12.70;11.40;;;;;;;17.51;88.39;100042.96;103994;280;97620;-56
2023/07/13 02:39:54;;;;;;;12.20;10.90;;;;;;;17.53;88.31;100047.17;104364;280;120504;-56
2023/07/13 02:42:26;;;;;;;;;;;;;;;17.54;88.48;100051.71;104357;280;105076;-55
2023/07/13 02:45:00;;;;;;;12.20;10.80;;;;;;;17.55;88.44;100053.67;103920;269;114417;-55
2023/07/13 02:47:35;;;;;;;12.00;10.70;;;;;;;17.57;88.43;100047.86;103968;280;95743;-55
2023/07/13 02:50:08;;;;;;;;;;;;;;;17.58;88.60;100040.95;103976;280;98200;-55
2023/07/13 02:52:42;;;;;;;11.50;10.30;;;;;;;17.61;88.53;100039.04;103963;280;119227;-55
2023/07/13 02:55:16;;;;;;;11.00;10.00;;;;;;;17.62;88.58;100037.14;103968;280;105236;-55
2023/07/13 02:57:50;;;;;;;12.00;9.90;;;;;;;17.63;88.80;100035.25;103942;280;113602;-55
2023/07/13 03:00:25;;;;;;;9.90;8.90;;;;;;;17.63;88.59;100038.36;103972;280;95672;-55
2023/07/13 03:03:00;;;;;;;10.10;8.70;;;;;;;17.62;88.66;100039.22;103973;280;98304;-55
2023/07/13 03:05:34;;;;;;;9.50;8.40;;;;;;;17.65;88.60;100037.59;103980;280;119813;-55
2023/07/13 03:08:08;;;;;;;11.40;9.90;;;;;;;17.67;88.38;100037.19;103952;280;104395;-55
2023/07/13 03:10:42;;;;;;;12.50;9.20;;;;;;;17.65;88.42;100036.73;103753;280;113148;-55
2023/07/13 03:13:14;;;;;;;;;;;;;;;17.63;88.57;100035.63;104005;280;96838;-55
2023/07/13 03:15:51;;;;;;;9.70;8.70;;;;;;;17.64;88.45;100029.42;104356;280;97404;-55
2023/07/13 03:18:26;;;;;;;10.10;8.40;;;;;;;17.64;88.36;100033.92;103962;280;121451;-55
2023/07/13 03:21:01;;;;;;;11.30;8.70;;;;;;;17.61;88.23;100038.88;104377;280;105401;-55
2023/07/13 03:23:35;;;;;;;9.60;8.50;;;;;;;17.60;88.24;100038.90;103936;280;113166;-56
2023/07/13 03:26:10;;;;;;;;;;;;;;;17.58;88.21;100038.86;103982;280;97118;-55
2023/07/13 03:28:46;;;;;;;9.20;8.20;;;;;;;17.58;88.18;100037.38;103944;280;98162;-55
2023/07/13 03:31:24;;;;;;;9.30;8.30;;;;;;;17.60;88.37;100029.98;103916;280;120641;-55
2023/07/13 03:33:59;;;;;;;9.30;8.30;;;;;;;17.69;88.23;100027.98;103951;280;106322;-55
2023/07/13 03:36:34;;;;;;;10.40;8.80;;;;;;;17.82;88.19;100025.98;103933;280;113849;-55
2023/07/13 03:39:10;;;;;;;11.50;9.40;;;;;;;18.17;87.68;100017.54;103955;280;97064;-55
2023/07/13 03:41:44;;;;;;;12.40;8.80;;;;;;;18.58;87.20;100017.11;103965;280;97032;-56
2023/07/13 03:44:19;;;;;;;9.30;8.40;;;;;;;19.44;86.55;100014.29;103942;280;118833;-56
2023/07/13 03:46:53;;;;;;;9.70;7.80;;;;;;;20.65;85.06;100010.16;104008;280;104250;-56
2023/07/13 03:49:28;;;;;;;10.00;8.20;;;;;;;21.48;83.20;100015.41;103966;283;114077;-56
2023/07/13 03:52:02;;;;;;;11.50;9.10;;;;;;;21.69;82.00;100021.18;103795;280;94762;-56
2023/07/13 03:54:34;;;;;;;;;;;;;;;22.17;81.33;100008.80;103961;280;97646;-56
2023/07/13 03:57:09;;;;;;;10.00;8.40;;;;;;;23.08;80.12;100013.59;104466;280;120728;-55
2023/07/13 03:59:43;;;;;;;9.60;8.60;;;;;;;24.07;78.01;100018.80;103994;280;105442;-55
2023/07/13 04:02:18;;;;;;;8.80;8.00;;;;;;;24.85;76.76;100013.33;104027;280;114524;-55
2023/07/13 04:04:54;;;;;;;8.90;7.90;;;;;;;25.69;75.34;100014.55;103937;280;94513;-55
2023/07/13 04:07:28;;;;;;;9.00;8.10;;;;;;;26.37;73.20;100010.91;104447;280;97218;-55
2023/07/13 04:10:02;;;;;;;9.10;8.20;;;;;;;26.96;71.01;100005.44;103822;280;119653;-55
2023/07/13 04:12:36;;;;;;;9.90;8.30;;;;;;;27.51;69.44;100013.40;104019;280;105073;-55
2023/07/13 04:15:12;;;;;;;8.80;8.00;;;;;;;27.98;68.01;100021.77;104408;280;114208;-55
2023/07/13 04:17:47;;;;;;;8.40;7.70;;;;;;;28.20;67.16;100028.29;104409;280;94877;-57
2023/07/13 04:20:21;;;;;;;9.10;8.20;;;;;;;28.81;66.21;100034.35;104011;280;97066;-57
2023/07/13 04:22:55;;;;;;;9.00;8.10;;;;;;;29.47;64.54;100036.25;103980;280;121187;-57
2023/07/13 04:25:30;;;;;;;9.70;8.20;;;;;;;29.12;63.65;100039.45;103948;279;105228;-57
2023/07/13 04:28:06;;;;;;;10.90;9.60;;;;;;;28.01;63.79;100049.47;103983;280;114243;-55
2023/07/13 04:30:41;;;;;;;10.00;9.10;;;;;;;26.94;64.37;100058.98;104415;280;93281;-55
2023/07/13 04:33:16;;;;;;;10.90;9.90;;;;;;;26.08;65.36;100064.43;103999;280;97014;-57
2023/07/13 04:35:55;;;;;;;11.60;10.50;;;;;;;25.41;66.12;100062.38;103973;279;121259;-57
2023/07/13 04:38:33;;;;;;;12.50;11.30;;;;;;;24.92;66.79;100062.68;103968;280;105123;-57
2023/07/13 04:41:10;;;;;;;12.40;11.20;;;;;;;24.67;67.31;100068.09;103980;280;113651;-56
2023/07/13 04:43:45;;;;;;;12.50;11.20;;;;;;;24.39;68.14;100064.13;103942;280;94722;-55
2023/07/13 04:46:20;;;;;;;12.90;11.60;;;;;;;24.07;68.81;100066.29;104003;280;97448;-55
2023/07/13 04:48:54;;;;;;;13.10;11.80;;;;;;;23.75;69.07;100074.13;103980;280;119375;-55
2023/07/13 04:51:29;;;;;;;13.10;11.80;;;;;;;23.41;69.83;100072.54;103946;280;105591;-55
2023/07/13 04:54:04;;;;;;;13.70;11.80;;;;;;;23.08;70.50;100067.29;103974;280;114225;-55
2023/07/13 04:56:39;;;;;;;12.80;11.60;;;;;;;22.72;71.29;100067.67;103949;280;92949;-55
2023/07/13 04:59:14;;;;;;;12.30;11.20;;;;;;;22.50;72.03;100065.61;103961;280;97301;-55
2023/07/13 05:01:48;;;;;;;13.50;12.10;;;;;;;22.36;72.27;100062.31;103981;280;120240;-55
2023/07/13 05:04:23;;;;;;;12.40;11.10;;;;;;;22.20;72.63;100065.98;103956;280;104346;-55
2023/07/13 05:06:56;;;;;;;13.70;11.90;;;;;;;22.09;73.09;100068.52;103925;280;115022;-55
2023/07/13 05:09:31;;;;;;;13.70;12.20;;;;;;;21.93;73.34;100075.29;103771;269;95292;-55
2023/07/13 05:12:06;;;;;;;15.10;12.60;;;;;;;21.97;73.84;100083.95;104403;280;99240;-55
2023/07/13 05:14:40;;;;;;;12.90;11.50;;;;;;;21.84;74.64;100088.83;103956;280;120095;-55
2023/07/13 05:17:14;;;;;;;11.90;10.40;;;;;;;21.88;75.02;100093.31;103940;280;588940;-56
2023/07/13 05:19:49;;;;;;;10.90;9.80;;;;;;;21.86;75.53;100092.25;103792;280;115276;-56
2023/07/13 05:22:23;;;;;;;14.00;10.40;;;;;;;21.92;75.67;100097.13;103946;280;96656;-57
2023/07/13 05:24:57;;;;;;;10.00;9.00;;;;;;;22.01;75.84;100099.02;103990;280;96875;-57
2023/07/13 05:27:32;;;;;;;11.40;10.30;;;;;;;22.14;75.89;100104.29;103964;280;120697;-55
2023/07/13 05:30:10;;;;;;;14.40;11.50;;;;;;;22.21;75.95;100107.27;103940;280;105299;-55
2023/07/13 05:32:45;;;;;;;12.60;11.30;;;;;;;22.30;76.09;100111.58;103980;280;114074;-55
2023/07/13 05:35:19;;;;;;;14.50;11.40;;;;;;;22.41;76.01;100117.10;103939;280;97425;-55
2023/07/13 05:37:53;;;;;;;11.40;10.20;;;;;;;22.53;76.17;100124.48;103942;280;97267;-56
2023/07/13 05:40:26;;;;;;;;;;;;;;;22.64;76.02;100131.45;103987;279;119224;-56
2023/07/13 05:43:00;;;;;;;11.20;10.10;;;;;;;22.80;76.13;100129.75;103972;280;104648;-57
2023/07/13 05:45:34;;;;;;;14.80;13.00;;;;;;;22.92;76.08;100127.49;103932;279;114182;-57
2023/07/13 05:48:09;;;;;;;15.80;14.20;;;;;;;22.92;76.15;100130.95;103964;280;92411;-56
2023/07/13 05:50:44;;;;;;;16.20;14.30;;;;;;;23.16;75.88;100126.30;104396;280;97198;-56
2023/07/13 05:53:19;;;;;;;16.60;14.60;;;;;;;23.22;75.69;100122.77;104385;279;119583;-56
2023/07/13 05:55:55;;;;;;;15.90;14.30;;;;;;;23.20;75.70;100118.96;104408;280;106140;-56
2023/07/13 05:58:29;;;;;;;19.10;14.50;;;;;;;23.22;75.51;100115.92;103938;280;113541;-55
2023/07/13 06:01:11;;;;;;;20.20;13.90;;;;;;;23.28;75.51;100108.69;103944;280;96548;-55
2023/07/13 06:03:45;;;;;;;17.60;13.70;;;;;;;23.42;75.42;100104.04;103978;280;98151;-55
2023/07/13 06:06:20;;;;;;;17.20;13.90;;;;;;;23.65;75.46;100107.42;104379;280;119068;-55
2023/07/13 06:08:54;;;;;;;19.00;14.70;;;;;;;23.88;74.89;100113.13;103970;280;104626;-55
2023/07/13 06:11:30;;;;;;;17.60;14.00;;;;;;;23.94;75.16;100114.47;104404;280;112968;-56
2023/07/13 06:14:05;;;;;;;16.80;14.70;;;;;;;24.16;75.03;100109.29;103975;280;92862;-56
2023/07/13 06:16:38;;;;;;;20.90;14.50;;;;;;;25.23;75.21;100105.15;103968;280;97078;-56
2023/07/13 06:19:11;;;;;;;;;;;;;;;25.69;73.28;100097.79;104003;280;120115;-56
2023/07/13 06:21:47;;;;;;;18.20;14.10;;;;;;;25.99;72.68;100095.50;104422;280;105910;-55
2023/07/13 06:24:22;;;;;;;16.30;12.80;;;;;;;27.09;71.64;100090.69;103983;280;113263;-57
2023/07/13 06:26:57;;;;;;;16.90;13.20;;;;;;;28.02;70.08;100092.56;103964;280;94784;-56
2023/07/13 06:29:32;;;;;;;18.00;13.80;;;;;;;29.08;68.86;100097.80;103971;280;97913;-56
2023/07/13 06:32:08;;;;;;;18.20;13.80;;;;;;;31.01;66.20;100099.13;103989;279;120258;-55
2023/07/13 06:34:42;;;;;;;14.60;13.00;;;;;;;32.67;62.50;100097.77;103978;280;105898;-54
2023/07/13 06:37:16;;;;;;;17.10;12.80;;;;;;;33.52;59.28;100097.53;104386;280;115268;-54
2023/07/13 06:39:51;;;;;;;13.40;11.30;;;;;;;34.35;56.73;100088.59;103931;280;93733;-54
2023/07/13 06:42:25;;;;;;;12.40;11.10;;;;;;;35.17;54.14;100088.42;103975;280;97440;-55
2023/07/13 06:45:00;;;;;;;13.90;10.60;;;;;;;36.05;52.54;100090.80;103990;280;119995;-56
2023/07/13 06:47:34;;;;;;;15.30;10.00;;;;;;;36.53;50.33;100088.14;104369;280;104555;-55
2023/07/13 06:50:09;;;;;;;14.40;10.20;;;;;;;37.08;48.20;100087.08;103962;280;113706;-55
2023/07/13 06:52:43;;;;;;;9.50;8.50;;;;;;;37.35;46.07;100079.20;103981;280;94854;-56
2023/07/13 06:55:18;;;;;;;8.90;7.40;;;;;;;37.51;44.91;100075.05;104449;280;97912;-56
2023/07/13 06:57:52;;;;;;;8.60;7.70;;;;;;;38.06;43.36;100067.17;103983;280;120829;-56
2023/07/13 07:00:26;;;;;;;8.80;7.60;;;;;;;37.46;42.30;100066.50;103985;280;104549;-57
2023/07/13 07:03:01;;;;;;;6.90;6.30;;;;;;;37.50;40.88;100072.70;104000;279;112096;-56
2023/07/13 07:05:35;;;;;;;8.50;5.80;;;;;;;38.32;40.08;100067.95;103988;280;93977;-58
2023/07/13 07:08:09;;;;;;;7.00;5.70;;;;;;;38.87;39.07;100063.30;104452;280;96304;-57
2023/07/13 07:10:43;;;;;;;7.80;5.50;;;;;;;39.23;37.60;100070.65;104466;280;118801;-57
2023/07/13 07:13:17;;;;;;;7.70;5.40;;;;;;;39.47;36.44;100067.00;104022;279;105471;-55
2023/07/13 07:15:53;;;;;;;6.50;5.90;;;;;;;39.57;35.83;100064.73;103953;280;113521;-57
2023/07/13 07:18:27;;;;;;;8.80;5.60;;;;;;;39.45;35.05;100066.23;103809;280;92525;-55
2023/07/13 07:21:02;;;;;;;5.90;5.40;;;;;;;39.83;34.78;100065.84;104015;280;97847;-56
2023/07/13 07:23:36;;;;;;;6.60;5.20;;;;;;;39.82;33.74;100067.77;103971;280;120927;-57
2023/07/13 07:26:11;;;;;;;7.00;6.10;;;;;;;39.62;33.49;100065.33;103966;280;104852;-56
2023/07/13 07:28:45;;;;;;;7.40;5.90;;;;;;;39.82;33.27;100060.41;103987;280;113613;-56
2023/07/13 07:31:19;;;;;;;6.30;5.50;;;;;;;40.36;33.06;100059.92;104004;280;93906;-55
2023/07/13 07:33:53;;;;;;;7.50;5.90;;;;;;;40.52;32.67;100060.11;103981;280;96985;-55
2023/07/13 07:36:27;;;;;;;5.70;5.20;;;;;;;40.53;32.70;100061.96;103953;280;121126;-55
2023/07/13 07:39:04;;;;;;;5.50;4.00;;;;;;;40.56;31.52;100067.97;103957;280;105282;-55
2023/07/13 07:41:39;;;;;;;5.50;4.70;;;;;;;40.26;31.01;100074.86;103952;280;114341;-57
2023/07/13 07:44:13;;;;;;;5.80;4.00;;;;;;;40.63;30.91;100069.52;104379;279;93560;-57
2023/07/13 07:46:47;;;;;;;4.50;4.10;;;;;;;41.05;30.41;100069.66;104467;280;98158;-55
2023/07/13 07:49:24;;;;;;;4.20;3.50;;;;;;;41.36;29.76;100073.37;103980;280;120000;-55
2023/07/13 07:52:01;;;;;;;4.40;3.60;;;;;;;41.08;29.23;100065.62;103993;280;104515;-56
2023/07/13 07:54:34;;;;;;;5.00;4.20;;;;;;;41.24;29.04;100066.79;103983;280;114743;-56
2023/07/13 07:57:09;;;;;;;4.30;3.90;;;;;;;41.47;29.11;100068.60;103998;280;92282;-56
2023/07/13 07:59:44;;;;;;;4.60;3.60;;;;;;;41.58;28.21;100065.03;103984;280;97449;-56
2023/07/13 08:02:18;;;;;;;5.20;4.20;;;;;;;41.47;27.85;100071.35;103974;280;119799;-55
2023/07/13 08:04:53;;;;;;;4.50;4.10;;;;;;;40.86;28.71;100067.52;103976;280;105506;-55
2023/07/13 08:07:27;;;;;;;6.50;4.50;;;;;;;41.08;28.72;100066.11;103940;280;115484;-55
2023/07/13 08:10:01;;;;;;;8.10;4.10;;;;;;;41.43;28.45;100073.38;103975;280;94465;-55
2023/07/13 08:12:37;;;;;;;4.80;4.20;;;;;;;41.65;27.87;100073.95;103967;280;97837;-55
2023/07/13 08:15:16;;;;;;;6.60;4.90;;;;;;;41.56;27.80;100073.79;103721;281;121421;-55
2023/07/13 08:17:51;;;;;;;4.90;4.10;;;;;;;41.37;27.35;100071.84;103996;280;104173;-55
2023/07/13 08:20:24;;;;;;;5.40;3.80;;;;;;;41.49;27.03;100072.23;103978;280;114239;-55
2023/07/13 08:22:59;;;;;;;4.10;3.70;;;;;;;41.00;26.88;100075.81;103963;280;92638;-56
2023/07/13 08:25:32;;;;;;;4.40;3.80;;;;;;;41.19;27.49;100074.31;103970;280;96566;-56
2023/07/13 08:28:07;;;;;;;5.40;4.20;;;;;;;41.50;27.03;100073.30;103978;280;120556;-56
2023/07/13 08:30:41;;;;;;;4.00;3.50;;;;;;;41.25;26.53;100075.05;103993;280;104969;-56
2023/07/13 08:33:15;;;;;;;4.20;3.80;;;;;;;40.83;26.10;100069.85;103960;280;113583;-57
2023/07/13 08:35:50;;;;;;;4.10;3.80;;;;;;;40.65;26.68;100075.38;103941;279;94369;-57
2023/07/13 08:38:24;;;;;;;4.40;4.00;;;;;;;40.55;26.61;100075.89;103988;280;97922;-55
2023/07/13 08:40:59;;;;;;;5.60;3.80;;;;;;;40.29;26.64;100081.98;103969;279;120181;-55
2023/07/13 08:43:38;;;;;;;4.50;4.10;;;;;;;40.04;26.38;100081.68;104471;280;105662;-57
2023/07/13 08:46:19;;;;;;;5.00;3.90;;;;;;;39.25;26.49;100083.55;104011;280;112672;-55
2023/07/13 08:48:57;;;;;;;4.70;3.90;;;;;;;37.84;27.54;100094.70;104009;280;93913;-55
2023/07/13 08:51:42;;;;;;;4.00;3.60;;;;;;;36.92;28.15;100100.95;103973;280;98445;-55
2023/07/13 08:54:27;;;;;;;4.30;3.90;;;;;;;36.38;28.84;100099.54;103968;280;120877;-54
2023/07/13 08:57:12;;;;;;;3.90;3.60;;;;;;;35.70;29.81;100098.89;104009;280;106413;-54
2023/07/13 08:59:47;;;;;;;5.60;4.50;;;;;;;35.02;30.74;100110.31;103812;280;114446;-54
2023/07/13 09:02:37;;;;;;;5.30;4.00;;;;;;;34.67;31.07;100110.64;103955;280;93713;-54
2023/07/13 09:05:19;;;;;;;5.30;4.20;;;;;;;34.48;31.51;100108.09;103990;280;96648;-54
2023/07/13 09:08:31;;;;;;;5.10;4.00;;;;;;;34.38;31.88;100105.71;103832;280;119935;-54
2023/07/13 09:11:19;;;;;;;4.70;4.00;;;;;;;34.53;32.50;100110.64;103992;280;105566;-55
2023/07/13 09:14:06;;;;;;;5.00;4.10;;;;;;;34.20;32.77;100110.84;103969;280;112236;-54
2023/07/13 09:16:41;;;;;;;4.40;4.00;;;;;;;33.94;33.16;100117.52;103993;280;93479;-54
2023/07/13 09:19:23;;;;;;;6.90;4.30;;;;;;;33.64;33.65;100124.84;103993;279;96680;-54
2023/07/13 09:21:59;;;;;;;6.40;3.90;;;;;;;32.84;34.01;100131.98;104418;279;119484;-56
2023/07/13 09:24:53;;;;;;;5.90;3.80;;;;;;;31.55;35.15;100121.98;103739;280;107561;-56
2023/07/13 09:27:35;;;;;;;8.70;4.30;;;;;;;30.50;36.23;100120.84;104425;280;113823;-56
2023/07/13 09:30:26;;;;;;;6.10;3.70;;;;;;;29.97;37.24;100126.77;104421;280;93833;-56
2023/07/13 09:33:00;;;;;;;4.50;2.60;;;;;;;29.31;38.06;100130.96;104001;280;97055;-54
2023/07/13 09:35:35;;;;;;;10.40;3.30;;;;;;;29.16;38.44;100128.64;103983;280;119530;-54
2023/07/13 09:38:17;;;;;;;3.50;2.20;;;;;;;28.88;38.45;100129.27;103988;280;103723;-54
2023/07/13 09:41:26;;;;;;;4.90;2.10;;;;;;;28.68;38.84;100123.80;103969;279;113622;-54
2023/07/13 09:44:14;;;;;;;6.00;2.60;;;;;;;28.40;39.62;100113.25;103966;280;92231;-56
2023/07/13 09:46:57;;;;;;;9.80;3.40;;;;;;;28.18;39.97;100100.93;104041;280;96924;-56
2023/07/13 09:49:35;;;;;;;9.90;3.00;;;;;;;28.11;40.55;100097.92;103836;281;119467;-56
2023/07/13 09:52:16;;;;;;;6.60;3.10;;;;;;;28.20;40.76;100097.77;104438;280;103786;-55
2023/07/13 09:54:55;;;;;;;8.50;3.00;;;;;;;28.54;40.98;100098.58;103936;280;114908;-55
2023/07/13 09:57:30;;;;;;;7.70;2.80;;;;;;;28.75;40.94;100093.02;103904;280;94632;-54
2023/07/13 10:00:09;;;;;;;6.50;2.90;;;;;;;28.88;40.77;100091.39;103960;279;97492;-54
2023/07/13 10:02:43;;;;;;;8.00;3.10;;;;;;;29.09;40.75;100097.19;103967;280;120473;-56
2023/07/13 10:05:22;;;;;;;5.70;3.30;;;;;;;29.35;40.42;100096.11;103948;287;105058;-56
2023/07/13 10:07:58;;;;;;;15.30;3.70;;;;;;;28.98;40.30;100091.91;104386;280;114604;-54
2023/07/13 10:10:33;;;;;;;8.50;3.40;;;;;;;28.68;40.60;100087.02;104443;280;94747;-54
2023/07/13 10:13:21;;;;;;;5.40;3.00;;;;;;;28.29;40.87;100086.20;104010;280;97796;-56
2023/07/13 10:15:57;;;;;;;4.80;3.20;;;;;;;27.61;41.28;100088.60;103979;280;120826;-56
2023/07/13 10:18:35;;;;;;;4.80;3.20;;;;;;;26.93;41.71;100095.33;104409;280;105413;-54
2023/07/13 10:21:18;;;;;;;11.20;4.00;;;;;;;26.64;42.32;100098.64;103973;280;114010;-55
2023/07/13 10:23:59;;;;;;;8.00;3.20;;;;;;;26.35;43.30;100104.64;104373;280;94889;-54
2023/07/13 10:26:35;;;;;;;5.70;3.60;;;;;;;25.98;44.14;100102.33;103989;279;98045;-55
2023/07/13 10:29:15;;;;;;;4.20;2.80;;;;;;;25.60;45.06;100101.61;104359;280;120655;-54
2023/07/13 10:31:50;;;;;;;4.00;3.20;;;;;;;25.22;45.75;100106.72;103944;280;106186;-62
2023/07/13 10:34:24;;;;;;;3.20;2.90;;;;;;;24.97;46.49;100115.98;103977;280;115081;-63
2023/07/13 10:36:59;;;;;;;5.10;2.60;;;;;;;24.81;47.45;100128.55;103962;280;94239;-63
2023/07/13 10:39:36;;;;;;;8.90;3.90;;;;;;;24.47;48.52;100146.42;104022;280;97256;-55
2023/07/13 10:42:15;;;;;;;6.20;3.50;;;;;;;24.10;50.14;100154.14;103947;280;120351;-58
2023/07/13 10:44:52;;;;;;;9.40;4.10;;;;;;;23.77;51.69;100162.17;103920;280;105597;-58
2023/07/13 10:47:27;;;;;;;7.10;3.30;;;;;;;23.47;53.51;100174.17;103988;280;112214;-56
2023/07/13 10:50:04;;;;;;;6.60;3.90;;;;;;;23.17;55.06;100177.50;104378;280;95308;-56
2023/07/13 10:52:50;;;;;;;5.40;3.60;;;;;;;22.96;56.80;100183.96;103964;280;98179;-57
2023/07/13 10:55:57;;;;;;;6.30;3.60;;;;;;;22.67;58.17;100174.36;104006;280;120939;-60
2023/07/13 10:58:38;;;;;;;5.70;3.20;;;;;;;22.27;59.26;100172.89;103838;280;106396;-58
2023/07/13 11:01:16;;;;;;;5.00;3.70;;;;;;;22.06;59.98;100166.66;103987;280;114620;-58
2023/07/13 11:04:02;;;;;;;5.90;3.60;;;;;;;21.92;60.66;100155.51;103971;284;96440;-58
2023/07/13 11:06:44;;;;;;;7.90;3.70;;;;;;;21.77;61.41;100152.33;104011;280;96638;-58
2023/07/13 11:09:40;;;;;;;6.10;3.40;;;;;;;21.70;62.81;100168.02;103979;280;120023;-58
2023/07/13 11:12:54;;;;;;;5.50;3.90;;;;;;;21.61;63.90;100182.33;103952;279;105756;-58
2023/07/13 11:15:50;;;;;;;8.70;4.50;;;;;;;21.39;64.71;100184.77;103966;280;113322;-56
2023/07/13 11:18:27;;;;;;;6.60;3.40;;;;;;;21.34;65.13;100174.81;103965;280;96611;-55
2023/07/13 11:21:19;;;;;;;5.60;3.60;;;;;;;21.29;65.27;100169.55;104020;280;97341;-54
2023/07/13 11:24:03;;;;;;;5.50;3.70;;;;;;;21.23;65.77;100178.08;103969;280;120047;-56
2023/07/13 11:26:53;;;;;;;6.00;3.70;;;;;;;21.15;66.22;100194.73;103986;280;104608;-55
2023/07/13 11:29:39;;;;;;;5.20;3.70;;;;;;;21.03;67.16;100212.69;103976;280;114943;-54
2023/07/13 11:32:32;;;;;;;7.90;5.00;;;;;;;20.99;67.77;100219.61;103967;280;94788;-57
2023/07/13 11:35:11;;;;;;;7.00;4.30;;;;;;;20.98;68.19;100217.19;104012;280;96473;-57
2023/07/13 11:37:48;;;;;;;5.60;3.50;;;;;;;20.90;68.07;100223.01;104462;280;119394;-56
2023/07/13 11:40:29;;;;;;;6.60;4.50;;;;;;;20.91;68.04;100221.52;104014;280;105180;-56
2023/07/13 11:43:09;;;;;;;6.40;3.80;;;;;;;20.84;68.86;100220.86;103979;280;113744;-55
2023/07/13 11:45:44;;;;;;;5.10;3.90;;;;;;;20.83;69.36;100215.46;103961;280;97360;-56
2023/07/13 11:48:31;;;;;;;7.10;4.10;;;;;;;20.81;69.73;100219.08;103948;280;97995;-55
2023/07/13 11:51:07;;;;;;;5.60;3.90;;;;;;;20.85;70.26;100219.33;103977;280;119599;-57
2023/07/13 11:53:46;;;;;;;6.70;4.50;;;;;;;20.91;70.19;100220.26;104436;280;106217;-57
2023/07/13 11:56:21;;;;;;;8.10;4.60;;;;;;;20.90;70.79;100220.37;103979;280;113536;-57
2023/07/13 11:58:57;;;;;;;7.20;4.50;;;;;;;21.09;70.74;100221.38;103992;280;95597;-57
2023/07/13 12:01:35;;;;;;;5.20;4.30;;;;;;;21.05;71.16;100215.18;104418;280;96965;-57